sensor_id;sensor_type;location;lat;lon;timestamp;pressure;altitude;pressure_sealevel;temperature
34807;BMP280;18310;55.586;12.286;2023-10-09T00:02:16;102206.25;;;14.59
34807;BMP280;18310;55.586;12.286;2023-10-09T00:05:20;102223.69;;;14.79
34807;BMP280;18310;55.586;12.286;2023-10-09T00:08:33;102215.94;;;14.81
34807;BMP280;18310;55.586;12.286;2023-10-09T00:11:39;102218.09;;;14.87
34807;BMP280;18310;55.586;12.286;2023-10-09T00:14:46;102212.72;;;14.91
34807;BMP280;18310;55.586;12.286;2023-10-09T00:17:52;102224.28;;;14.97
34807;BMP280;18310;55.586;12.286;2023-10-09T00:20:59;102216.16;;;15.00
34807;BMP280;18310;55.586;12.286;2023-10-09T00:24:13;102214.00;;;15.06
34807;BMP280;18310;55.586;12.286;2023-10-09T00:27:24;102199.22;;;15.10
34807;BMP280;18310;55.586;12.286;2023-10-09T00:30:33;102191.91;;;15.14
34807;BMP280;18310;55.586;12.286;2023-10-09T00:33:37;102188.94;;;15.19
34807;BMP280;18310;55.586;12.286;2023-10-09T00:36:42;102173.38;;;15.23
34807;BMP280;18310;55.586;12.286;2023-10-09T00:39:53;102155.75;;;15.24
34807;BMP280;18310;55.586;12.286;2023-10-09T00:42:59;102159.06;;;15.30
34807;BMP280;18310;55.586;12.286;2023-10-09T00:46:06;102153.69;;;15.33
34807;BMP280;18310;55.586;12.286;2023-10-09T00:49:14;102152.53;;;15.34
34807;BMP280;18310;55.586;12.286;2023-10-09T00:52:19;102146.69;;;15.36
34807;BMP280;18310;55.586;12.286;2023-10-09T00:55:33;102151.84;;;15.37
34807;BMP280;18310;55.586;12.286;2023-10-09T00:58:49;102136.09;;;15.34
34807;BMP280;18310;55.586;12.286;2023-10-09T01:01:57;102127.38;;;15.32
34807;BMP280;18310;55.586;12.286;2023-10-09T01:05:07;102115.59;;;15.32
34807;BMP280;18310;55.586;12.286;2023-10-09T01:08:23;102094.03;;;15.30
34807;BMP280;18310;55.586;12.286;2023-10-09T01:11:31;102092.88;;;15.31
34807;BMP280;18310;55.586;12.286;2023-10-09T01:14:36;102097.22;;;15.32
34807;BMP280;18310;55.586;12.286;2023-10-09T01:17:39;102101.19;;;15.35
34807;BMP280;18310;55.586;12.286;2023-10-09T01:20:47;102084.72;;;15.35
34807;BMP280;18310;55.586;12.286;2023-10-09T01:23:56;102099.25;;;15.35
34807;BMP280;18310;55.586;12.286;2023-10-09T01:27:07;102094.56;;;15.36
34807;BMP280;18310;55.586;12.286;2023-10-09T01:30:16;102099.72;;;15.37
34807;BMP280;18310;55.586;12.286;2023-10-09T01:33:19;102098.56;;;15.38
34807;BMP280;18310;55.586;12.286;2023-10-09T01:36:26;102080.25;;;15.42
34807;BMP280;18310;55.586;12.286;2023-10-09T01:39:36;102079.19;;;15.47
34807;BMP280;18310;55.586;12.286;2023-10-09T01:42:43;102078.84;;;15.49
34807;BMP280;18310;55.586;12.286;2023-10-09T01:45:47;102072.66;;;15.52
34807;BMP280;18310;55.586;12.286;2023-10-09T01:48:54;102064.50;;;15.55
34807;BMP280;18310;55.586;12.286;2023-10-09T01:51:57;102055.84;;;15.53
34807;BMP280;18310;55.586;12.286;2023-10-09T01:55:07;102045.38;;;15.59
34807;BMP280;18310;55.586;12.286;2023-10-09T01:58:12;102026.97;;;15.59
34807;BMP280;18310;55.586;12.286;2023-10-09T02:01:26;102026.97;;;15.59
34807;BMP280;18310;55.586;12.286;2023-10-09T02:04:29;102030.53;;;15.60
34807;BMP280;18310;55.586;12.286;2023-10-09T02:07:32;102025.81;;;15.60
34807;BMP280;18310;55.586;12.286;2023-10-09T02:10:44;102018.06;;;15.62
34807;BMP280;18310;55.586;12.286;2023-10-09T02:13:50;102013.00;;;15.64
34807;BMP280;18310;55.586;12.286;2023-10-09T02:16:59;102005.19;;;15.66
34807;BMP280;18310;55.586;12.286;2023-10-09T02:20:06;102000.50;;;15.67
34807;BMP280;18310;55.586;12.286;2023-10-09T02:23:19;101991.09;;;15.68
34807;BMP280;18310;55.586;12.286;2023-10-09T02:26:29;101977.38;;;15.68
34807;BMP280;18310;55.586;12.286;2023-10-09T02:29:51;101967.19;;;15.68
34807;BMP280;18310;55.586;12.286;2023-10-09T02:32:55;101966.16;;;15.73
34807;BMP280;18310;55.586;12.286;2023-10-09T02:36:08;101970.97;;;15.79
34807;BMP280;18310;55.586;12.286;2023-10-09T02:39:15;101973.94;;;15.86
34807;BMP280;18310;55.586;12.286;2023-10-09T02:42:27;101967.81;;;15.93
34807;BMP280;18310;55.586;12.286;2023-10-09T02:45:30;101963.53;;;15.96
34807;BMP280;18310;55.586;12.286;2023-10-09T02:48:45;101970.06;;;16.07
34807;BMP280;18310;55.586;12.286;2023-10-09T02:51:50;101964.31;;;16.12
34807;BMP280;18310;55.586;12.286;2023-10-09T02:54:56;101951.53;;;16.19
34807;BMP280;18310;55.586;12.286;2023-10-09T02:58:03;101940.53;;;16.19
34807;BMP280;18310;55.586;12.286;2023-10-09T03:01:10;101936.63;;;16.20
34807;BMP280;18310;55.586;12.286;2023-10-09T03:04:16;101926.88;;;16.23
34807;BMP280;18310;55.586;12.286;2023-10-09T03:07:21;101928.53;;;16.27
34807;BMP280;18310;55.586;12.286;2023-10-09T03:10:25;101923.41;;;16.26
34807;BMP280;18310;55.586;12.286;2023-10-09T03:13:30;101916.47;;;16.32
34807;BMP280;18310;55.586;12.286;2023-10-09T03:16:34;101908.28;;;16.35
34807;BMP280;18310;55.586;12.286;2023-10-09T03:19:38;101903.97;;;16.34
34807;BMP280;18310;55.586;12.286;2023-10-09T03:22:42;101896.88;;;16.33
34807;BMP280;18310;55.586;12.286;2023-10-09T03:25:46;101892.38;;;16.25
34807;BMP280;18310;55.586;12.286;2023-10-09T03:28:51;101883.84;;;16.30
34807;BMP280;18310;55.586;12.286;2023-10-09T03:31:54;101877.63;;;16.33
34807;BMP280;18310;55.586;12.286;2023-10-09T03:34:58;101892.97;;;16.34
34807;BMP280;18310;55.586;12.286;2023-10-09T03:38:02;101875.69;;;16.34
34807;BMP280;18310;55.586;12.286;2023-10-09T03:41:14;101863.16;;;16.36
34807;BMP280;18310;55.586;12.286;2023-10-09T03:44:21;101858.47;;;16.37
34807;BMP280;18310;55.586;12.286;2023-10-09T03:47:24;101866.31;;;16.38
34807;BMP280;18310;55.586;12.286;2023-10-09T03:50:31;101854.91;;;16.36
34807;BMP280;18310;55.586;12.286;2023-10-09T03:53:39;101847.91;;;16.39
34807;BMP280;18310;55.586;12.286;2023-10-09T03:56:42;101852.16;;;16.36
34807;BMP280;18310;55.586;12.286;2023-10-09T03:59:46;101841.19;;;16.36
34807;BMP280;18310;55.586;12.286;2023-10-09T04:02:50;101837.22;;;16.34
34807;BMP280;18310;55.586;12.286;2023-10-09T04:05:54;101843.72;;;16.26
34807;BMP280;18310;55.586;12.286;2023-10-09T04:08:58;101840.25;;;16.29
34807;BMP280;18310;55.586;12.286;2023-10-09T04:12:01;101844.94;;;16.28
34807;BMP280;18310;55.586;12.286;2023-10-09T04:15:24;101839.44;;;16.28
34807;BMP280;18310;55.586;12.286;2023-10-09T04:18:27;101842.91;;;16.25
34807;BMP280;18310;55.586;12.286;2023-10-09T04:21:35;101839.38;;;16.25
34807;BMP280;18310;55.586;12.286;2023-10-09T04:24:38;101836.69;;;16.28
34807;BMP280;18310;55.586;12.286;2023-10-09T04:27:43;101837.50;;;16.29
34807;BMP280;18310;55.586;12.286;2023-10-09T04:30:50;101841.84;;;16.30
34807;BMP280;18310;55.586;12.286;2023-10-09T04:33:58;101836.00;;;16.31
34807;BMP280;18310;55.586;12.286;2023-10-09T04:37:15;101838.75;;;16.31
34807;BMP280;18310;55.586;12.286;2023-10-09T04:40:38;101841.84;;;16.30
34807;BMP280;18310;55.586;12.286;2023-10-09T04:43:50;101842.63;;;16.30
34807;BMP280;18310;55.586;12.286;2023-10-09T04:47:13;101829.59;;;16.27
34807;BMP280;18310;55.586;12.286;2023-10-09T04:50:27;101824.84;;;16.24
34807;BMP280;18310;55.586;12.286;2023-10-09T04:53:47;101830.72;;;16.23
34807;BMP280;18310;55.586;12.286;2023-10-09T04:57:09;101822.47;;;16.23
34807;BMP280;18310;55.586;12.286;2023-10-09T05:00:19;101823.28;;;16.23
34807;BMP280;18310;55.586;12.286;2023-10-09T05:03:47;101824.00;;;16.20
34807;BMP280;18310;55.586;12.286;2023-10-09T05:06:59;101830.66;;;16.19
34807;BMP280;18310;55.586;12.286;2023-10-09T05:10:05;101824.41;;;16.22
34807;BMP280;18310;55.586;12.286;2023-10-09T05:13:16;101822.84;;;16.21
34807;BMP280;18310;55.586;12.286;2023-10-09T05:16:40;101821.25;;;16.20
34807;BMP280;18310;55.586;12.286;2023-10-09T05:19:57;101820.88;;;16.22
34807;BMP280;18310;55.586;12.286;2023-10-09T05:23:26;101824.69;;;16.17
34807;BMP280;18310;55.586;12.286;2023-10-09T05:26:28;101826.28;;;16.18
34807;BMP280;18310;55.586;12.286;2023-10-09T05:29:39;101821.94;;;16.17
34807;BMP280;18310;55.586;12.286;2023-10-09T05:32:52;101822.75;;;16.18
34807;BMP280;18310;55.586;12.286;2023-10-09T05:36:03;101833.38;;;16.19
34807;BMP280;18310;55.586;12.286;2023-10-09T05:39:34;101852.16;;;16.17
34807;BMP280;18310;55.586;12.286;2023-10-09T05:42:44;101842.78;;;16.18
34807;BMP280;18310;55.586;12.286;2023-10-09T05:45:48;101842.09;;;16.21
34807;BMP280;18310;55.586;12.286;2023-10-09T05:49:10;101829.91;;;16.22
34807;BMP280;18310;55.586;12.286;2023-10-09T05:52:23;101828.84;;;16.27
34807;BMP280;18310;55.586;12.286;2023-10-09T05:55:55;101819.50;;;16.31
34807;BMP280;18310;55.586;12.286;2023-10-09T05:59:17;101829.31;;;16.32
34807;BMP280;18310;55.586;12.286;2023-10-09T06:02:37;101837.22;;;16.34
34807;BMP280;18310;55.586;12.286;2023-10-09T06:06:03;101842.31;;;16.35
34807;BMP280;18310;55.586;12.286;2023-10-09T06:09:09;101841.25;;;16.40
34807;BMP280;18310;55.586;12.286;2023-10-09T06:12:44;101825.09;;;16.38
34807;BMP280;18310;55.586;12.286;2023-10-09T06:15:59;101816.88;;;16.38
34807;BMP280;18310;55.586;12.286;2023-10-09T06:19:43;101812.16;;;16.39
34807;BMP280;18310;55.586;12.286;2023-10-09T06:22:45;101816.16;;;16.41
34807;BMP280;18310;55.586;12.286;2023-10-09T06:26:07;101817.03;;;16.46
34807;BMP280;18310;55.586;12.286;2023-10-09T06:29:25;101821.72;;;16.45
34807;BMP280;18310;55.586;12.286;2023-10-09T06:32:37;101833.50;;;16.46
34807;BMP280;18310;55.586;12.286;2023-10-09T06:35:48;101837.06;;;16.46
34807;BMP280;18310;55.586;12.286;2023-10-09T06:38:58;101823.97;;;16.39
34807;BMP280;18310;55.586;12.286;2023-10-09T06:42:31;101834.34;;;16.50
34807;BMP280;18310;55.586;12.286;2023-10-09T06:45:46;101847.28;;;16.49
34807;BMP280;18310;55.586;12.286;2023-10-09T06:48:56;101849.69;;;16.51
34807;BMP280;18310;55.586;12.286;2023-10-09T06:51:58;101860.44;;;16.59
34807;BMP280;18310;55.586;12.286;2023-10-09T06:55:17;101855.84;;;16.63
34807;BMP280;18310;55.586;12.286;2023-10-09T06:58:23;101872.06;;;16.72
34807;BMP280;18310;55.586;12.286;2023-10-09T07:01:28;101867.00;;;16.74
34807;BMP280;18310;55.586;12.286;2023-10-09T07:04:44;101866.28;;;16.77
34807;BMP280;18310;55.586;12.286;2023-10-09T07:07:50;101862.38;;;16.78
34807;BMP280;18310;55.586;12.286;2023-10-09T07:10:58;101858.56;;;16.86
34807;BMP280;18310;55.586;12.286;2023-10-09T07:14:25;101847.75;;;16.97
34807;BMP280;18310;55.586;12.286;2023-10-09T07:17:46;101862.03;;;17.06
34807;BMP280;18310;55.586;12.286;2023-10-09T07:20:49;101865.75;;;17.13
34807;BMP280;18310;55.586;12.286;2023-10-09T07:24:13;101870.19;;;17.21
34807;BMP280;18310;55.586;12.286;2023-10-09T07:27:23;101869.91;;;17.30
34807;BMP280;18310;55.586;12.286;2023-10-09T07:30:42;101864.91;;;17.39
34807;BMP280;18310;55.586;12.286;2023-10-09T07:34:07;101861.16;;;17.47
34807;BMP280;18310;55.586;12.286;2023-10-09T07:37:27;101863.97;;;17.54
34807;BMP280;18310;55.586;12.286;2023-10-09T07:40:33;101856.63;;;17.62
34807;BMP280;18310;55.586;12.286;2023-10-09T07:43:53;101847.66;;;17.68
34807;BMP280;18310;55.586;12.286;2023-10-09T07:46:58;101846.94;;;17.75
34807;BMP280;18310;55.586;12.286;2023-10-09T07:50:17;101844.34;;;17.85
34807;BMP280;18310;55.586;12.286;2023-10-09T07:53:23;101847.19;;;17.92
34807;BMP280;18310;55.586;12.286;2023-10-09T07:56:29;101853.22;;;18.02
34807;BMP280;18310;55.586;12.286;2023-10-09T07:59:40;101854.06;;;18.09
34807;BMP280;18310;55.586;12.286;2023-10-09T08:02:56;101850.19;;;18.14
34807;BMP280;18310;55.586;12.286;2023-10-09T08:06:04;101849.50;;;18.20
34807;BMP280;18310;55.586;12.286;2023-10-09T08:09:32;101845.59;;;18.25
34807;BMP280;18310;55.586;12.286;2023-10-09T08:12:49;101848.41;;;18.32
34807;BMP280;18310;55.586;12.286;2023-10-09T08:16:01;101849.69;;;18.38
34807;BMP280;18310;55.586;12.286;2023-10-09T08:19:06;101856.84;;;18.46
34807;BMP280;18310;55.586;12.286;2023-10-09T08:22:35;101863.19;;;18.54
34807;BMP280;18310;55.586;12.286;2023-10-09T08:25:52;101864.44;;;18.56
34807;BMP280;18310;55.586;12.286;2023-10-09T08:29:12;101848.31;;;18.58
34807;BMP280;18310;55.586;12.286;2023-10-09T08:32:21;101851.84;;;18.59
34807;BMP280;18310;55.586;12.286;2023-10-09T08:35:43;101852.75;;;18.70
34807;BMP280;18310;55.586;12.286;2023-10-09T08:38:52;101847.31;;;18.80
34807;BMP280;18310;55.586;12.286;2023-10-09T08:42:00;101837.13;;;18.84
34807;BMP280;18310;55.586;12.286;2023-10-09T08:45:07;101842.31;;;18.96
34807;BMP280;18310;55.586;12.286;2023-10-09T08:48:11;101837.59;;;18.97
34807;BMP280;18310;55.586;12.286;2023-10-09T08:51:18;101841.66;;;19.10
34807;BMP280;18310;55.586;12.286;2023-10-09T08:54:23;101840.91;;;19.17
34807;BMP280;18310;55.586;12.286;2023-10-09T08:57:27;101829.50;;;19.25
34807;BMP280;18310;55.586;12.286;2023-10-09T09:00:32;101827.19;;;19.34
34807;BMP280;18310;55.586;12.286;2023-10-09T09:03:42;101834.72;;;19.41
34807;BMP280;18310;55.586;12.286;2023-10-09T09:06:46;101837.13;;;19.49
34807;BMP280;18310;55.586;12.286;2023-10-09T09:09:55;101837.19;;;19.60
34807;BMP280;18310;55.586;12.286;2023-10-09T09:13:03;101844.75;;;19.74
34807;BMP280;18310;55.586;12.286;2023-10-09T09:16:18;101841.63;;;19.86
34807;BMP280;18310;55.586;12.286;2023-10-09T09:19:31;101845.63;;;19.95
34807;BMP280;18310;55.586;12.286;2023-10-09T09:22:51;101823.13;;;20.00
34807;BMP280;18310;55.586;12.286;2023-10-09T09:25:56;101820.78;;;20.13
34807;BMP280;18310;55.586;12.286;2023-10-09T09:29:04;101832.25;;;20.19
34807;BMP280;18310;55.586;12.286;2023-10-09T09:32:10;101835.00;;;20.22
34807;BMP280;18310;55.586;12.286;2023-10-09T09:35:20;101832.25;;;20.22
34807;BMP280;18310;55.586;12.286;2023-10-09T09:38:30;101821.59;;;20.17
34807;BMP280;18310;55.586;12.286;2023-10-09T09:41:45;101816.44;;;20.09
34807;BMP280;18310;55.586;12.286;2023-10-09T09:44:48;101829.06;;;20.10
34807;BMP280;18310;55.586;12.286;2023-10-09T09:47:52;101823.13;;;20.15
34807;BMP280;18310;55.586;12.286;2023-10-09T09:50:56;101834.19;;;20.15
34807;BMP280;18310;55.586;12.286;2023-10-09T09:54:00;101831.81;;;20.10
34807;BMP280;18310;55.586;12.286;2023-10-09T09:57:07;101826.28;;;20.06
34807;BMP280;18310;55.586;12.286;2023-10-09T10:00:13;101828.66;;;20.08
34807;BMP280;18310;55.586;12.286;2023-10-09T10:03:34;101812.84;;;19.97
34807;BMP280;18310;55.586;12.286;2023-10-09T10:06:39;101818.00;;;20.02
34807;BMP280;18310;55.586;12.286;2023-10-09T10:09:43;101819.97;;;19.98
34807;BMP280;18310;55.586;12.286;2023-10-09T10:12:51;101820.34;;;19.97
34807;BMP280;18310;55.586;12.286;2023-10-09T10:16:07;101815.63;;;20.01
34807;BMP280;18310;55.586;12.286;2023-10-09T10:19:22;101808.09;;;20.05
34807;BMP280;18310;55.586;12.286;2023-10-09T10:22:26;101811.28;;;20.07
34807;BMP280;18310;55.586;12.286;2023-10-09T10:25:33;101806.56;;;20.08
34807;BMP280;18310;55.586;12.286;2023-10-09T10:29:18;101808.91;;;20.09
34807;BMP280;18310;55.586;12.286;2023-10-09T10:32:52;101811.31;;;20.14
34807;BMP280;18310;55.586;12.286;2023-10-09T10:35:56;101812.09;;;20.22
34807;BMP280;18310;55.586;12.286;2023-10-09T10:39:00;101816.44;;;20.26
34807;BMP280;18310;55.586;12.286;2023-10-09T10:42:14;101819.63;;;20.32
34807;BMP280;18310;55.586;12.286;2023-10-09T10:45:37;101813.28;;;20.38
34807;BMP280;18310;55.586;12.286;2023-10-09T10:48:46;101810.94;;;20.47
34807;BMP280;18310;55.586;12.286;2023-10-09T10:51:51;101818.84;;;20.52
34807;BMP280;18310;55.586;12.286;2023-10-09T10:55:11;101820.44;;;20.57
34807;BMP280;18310;55.586;12.286;2023-10-09T10:58:53;101808.97;;;20.55
34807;BMP280;18310;55.586;12.286;2023-10-09T11:02:16;101817.66;;;20.68
34807;BMP280;18310;55.586;12.286;2023-10-09T11:05:30;101814.13;;;20.67
34807;BMP280;18310;55.586;12.286;2023-10-09T11:08:47;101822.81;;;20.66
34807;BMP280;18310;55.586;12.286;2023-10-09T11:12:04;101832.28;;;20.68
34807;BMP280;18310;55.586;12.286;2023-10-09T11:15:30;101823.97;;;20.68
34807;BMP280;18310;55.586;12.286;2023-10-09T11:18:47;101837.03;;;20.68
34807;BMP280;18310;55.586;12.286;2023-10-09T11:21:51;101835.84;;;20.61
34807;BMP280;18310;55.586;12.286;2023-10-09T11:25:21;101834.25;;;20.53
34807;BMP280;18310;55.586;12.286;2023-10-09T11:28:28;101846.13;;;20.50
34807;BMP280;18310;55.586;12.286;2023-10-09T11:31:32;101842.59;;;20.46
34807;BMP280;18310;55.586;12.286;2023-10-09T11:34:37;101821.22;;;20.43
34807;BMP280;18310;55.586;12.286;2023-10-09T11:37:40;101823.59;;;20.38
34807;BMP280;18310;55.586;12.286;2023-10-09T11:40:44;101814.09;;;20.21
34807;BMP280;18310;55.586;12.286;2023-10-09T11:44:06;101820.00;;;20.20
34807;BMP280;18310;55.586;12.286;2023-10-09T11:47:20;101832.63;;;20.06
34807;BMP280;18310;55.586;12.286;2023-10-09T11:50:43;101825.47;;;19.91
34807;BMP280;18310;55.586;12.286;2023-10-09T11:53:53;101827.03;;;19.89
34807;BMP280;18310;55.586;12.286;2023-10-09T11:57:00;101828.19;;;19.84
34807;BMP280;18310;55.586;12.286;2023-10-09T12:00:04;101830.97;;;19.84
34807;BMP280;18310;55.586;12.286;2023-10-09T12:03:32;101842.41;;;19.83
34807;BMP280;18310;55.586;12.286;2023-10-09T12:06:37;101836.13;;;19.86
34807;BMP280;18310;55.586;12.286;2023-10-09T12:09:41;101836.94;;;19.90
34807;BMP280;18310;55.586;12.286;2023-10-09T12:12:44;101829.41;;;19.94
34807;BMP280;18310;55.586;12.286;2023-10-09T12:15:48;101811.25;;;19.89
34807;BMP280;18310;55.586;12.286;2023-10-09T12:18:54;101828.66;;;20.00
34807;BMP280;18310;55.586;12.286;2023-10-09T12:21:59;101815.25;;;20.02
34807;BMP280;18310;55.586;12.286;2023-10-09T12:25:03;101831.03;;;20.05
34807;BMP280;18310;55.586;12.286;2023-10-09T12:28:11;101826.72;;;20.08
34807;BMP280;18310;55.586;12.286;2023-10-09T12:31:16;101832.25;;;20.08
34807;BMP280;18310;55.586;12.286;2023-10-09T12:34:21;101833.41;;;20.07
34807;BMP280;18310;55.586;12.286;2023-10-09T12:37:26;101836.94;;;20.04
34807;BMP280;18310;55.586;12.286;2023-10-09T12:40:29;101827.09;;;19.99
34807;BMP280;18310;55.586;12.286;2023-10-09T12:43:33;101829.41;;;19.94
34807;BMP280;18310;55.586;12.286;2023-10-09T12:46:40;101834.53;;;19.88
34807;BMP280;18310;55.586;12.286;2023-10-09T12:49:43;101832.56;;;19.85
34807;BMP280;18310;55.586;12.286;2023-10-09T12:52:48;101830.94;;;19.81
34807;BMP280;18310;55.586;12.286;2023-10-09T12:55:52;101828.19;;;19.77
34807;BMP280;18310;55.586;12.286;2023-10-09T12:58:58;101820.63;;;19.71
34807;BMP280;18310;55.586;12.286;2023-10-09T13:02:02;101826.59;;;19.66
34807;BMP280;18310;55.586;12.286;2023-10-09T13:05:07;101813.56;;;19.70
34807;BMP280;18310;55.586;12.286;2023-10-09T13:08:14;101810.38;;;19.71
34807;BMP280;18310;55.586;12.286;2023-10-09T13:11:18;101813.16;;;19.71
34807;BMP280;18310;55.586;12.286;2023-10-09T13:14:21;101819.09;;;19.73
34807;BMP280;18310;55.586;12.286;2023-10-09T13:17:25;101811.59;;;19.74
34807;BMP280;18310;55.586;12.286;2023-10-09T13:20:29;101795.78;;;19.71
34807;BMP280;18310;55.586;12.286;2023-10-09T13:23:34;101779.59;;;19.69
34807;BMP280;18310;55.586;12.286;2023-10-09T13:26:41;101781.97;;;19.71
34807;BMP280;18310;55.586;12.286;2023-10-09T13:29:47;101786.72;;;19.74
34807;BMP280;18310;55.586;12.286;2023-10-09T13:32:50;101787.53;;;19.74
34807;BMP280;18310;55.586;12.286;2023-10-09T13:35:53;101783.97;;;19.74
34807;BMP280;18310;55.586;12.286;2023-10-09T13:38:59;101784.00;;;19.77
34807;BMP280;18310;55.586;12.286;2023-10-09T13:42:21;101777.66;;;19.80
34807;BMP280;18310;55.586;12.286;2023-10-09T13:45:27;101772.53;;;19.82
34807;BMP280;18310;55.586;12.286;2023-10-09T13:48:32;101776.09;;;19.83
34807;BMP280;18310;55.586;12.286;2023-10-09T13:51:40;101778.88;;;19.86
34807;BMP280;18310;55.586;12.286;2023-10-09T13:55:09;101786.00;;;19.91
34807;BMP280;18310;55.586;12.286;2023-10-09T13:58:18;101784.78;;;19.92
34807;BMP280;18310;55.586;12.286;2023-10-09T14:01:22;101771.38;;;19.87
34807;BMP280;18310;55.586;12.286;2023-10-09T14:04:34;101770.19;;;19.88
34807;BMP280;18310;55.586;12.286;2023-10-09T14:07:37;101782.44;;;20.01
34807;BMP280;18310;55.586;12.286;2023-10-09T14:10:44;101790.72;;;20.04
34807;BMP280;18310;55.586;12.286;2023-10-09T14:13:50;101786.41;;;20.07
34807;BMP280;18310;55.586;12.286;2023-10-09T14:17:12;101788.41;;;20.14
34807;BMP280;18310;55.586;12.286;2023-10-09T14:20:16;101792.38;;;20.13
34807;BMP280;18310;55.586;12.286;2023-10-09T14:23:36;101793.94;;;20.14
34807;BMP280;18310;55.586;12.286;2023-10-09T14:26:42;101784.06;;;20.13
34807;BMP280;18310;55.586;12.286;2023-10-09T14:29:47;101789.19;;;20.07
34807;BMP280;18310;55.586;12.286;2023-10-09T14:32:50;101784.03;;;20.02
34807;BMP280;18310;55.586;12.286;2023-10-09T14:35:57;101784.03;;;19.98
34807;BMP280;18310;55.586;12.286;2023-10-09T14:39:03;101789.56;;;19.95
34807;BMP280;18310;55.586;12.286;2023-10-09T14:42:08;101789.53;;;19.88
34807;BMP280;18310;55.586;12.286;2023-10-09T14:45:12;101789.50;;;19.84
34807;BMP280;18310;55.586;12.286;2023-10-09T14:48:17;101797.00;;;19.80
34807;BMP280;18310;55.586;12.286;2023-10-09T14:51:21;101795.81;;;19.74
34807;BMP280;18310;55.586;12.286;2023-10-09T14:54:29;101780.81;;;19.68
34807;BMP280;18310;55.586;12.286;2023-10-09T14:57:34;101781.53;;;19.62
34807;BMP280;18310;55.586;12.286;2023-10-09T15:00:37;101786.69;;;19.56
34807;BMP280;18310;55.586;12.286;2023-10-09T15:03:45;101791.78;;;19.54
34807;BMP280;18310;55.586;12.286;2023-10-09T15:06:50;101789.03;;;19.54
34807;BMP280;18310;55.586;12.286;2023-10-09T15:09:53;101785.47;;;19.53
34807;BMP280;18310;55.586;12.286;2023-10-09T15:12:57;101788.63;;;19.52
34807;BMP280;18310;55.586;12.286;2023-10-09T15:16:01;101790.97;;;19.50
34807;BMP280;18310;55.586;12.286;2023-10-09T15:19:05;101783.81;;;19.38
34807;BMP280;18310;55.586;12.286;2023-10-09T15:22:11;101782.69;;;19.43
34807;BMP280;18310;55.586;12.286;2023-10-09T15:25:15;101780.28;;;19.41
34807;BMP280;18310;55.586;12.286;2023-10-09T15:28:21;101781.06;;;19.38
34807;BMP280;18310;55.586;12.286;2023-10-09T15:31:24;101781.03;;;19.35
34807;BMP280;18310;55.586;12.286;2023-10-09T15:34:29;101781.44;;;19.33
34807;BMP280;18310;55.586;12.286;2023-10-09T15:37:33;101798.38;;;19.32
34807;BMP280;18310;55.586;12.286;2023-10-09T15:40:38;101794.03;;;19.31
34807;BMP280;18310;55.586;12.286;2023-10-09T15:43:47;101801.94;;;19.29
34807;BMP280;18310;55.586;12.286;2023-10-09T15:46:51;101812.59;;;19.30
34807;BMP280;18310;55.586;12.286;2023-10-09T15:50:01;101804.31;;;19.30
34807;BMP280;18310;55.586;12.286;2023-10-09T15:53:05;101801.16;;;19.32
34807;BMP280;18310;55.586;12.286;2023-10-09T15:56:09;101816.16;;;19.34
34807;BMP280;18310;55.586;12.286;2023-10-09T15:59:16;101821.69;;;19.38
34807;BMP280;18310;55.586;12.286;2023-10-09T16:02:19;101822.50;;;19.38
34807;BMP280;18310;55.586;12.286;2023-10-09T16:05:22;101814.59;;;19.33
34807;BMP280;18310;55.586;12.286;2023-10-09T16:08:27;101819.69;;;19.31
34807;BMP280;18310;55.586;12.286;2023-10-09T16:11:30;101820.47;;;19.32
34807;BMP280;18310;55.586;12.286;2023-10-09T16:14:37;101807.06;;;19.30
34807;BMP280;18310;55.586;12.286;2023-10-09T16:17:40;101795.16;;;19.19
34807;BMP280;18310;55.586;12.286;2023-10-09T16:20:44;101814.88;;;19.18
34807;BMP280;18310;55.586;12.286;2023-10-09T16:23:48;101820.81;;;19.20
34807;BMP280;18310;55.586;12.286;2023-10-09T16:26:51;101825.91;;;19.18
34807;BMP280;18310;55.586;12.286;2023-10-09T16:29:58;101822.78;;;19.19
34807;BMP280;18310;55.586;12.286;2023-10-09T16:33:07;101829.47;;;19.18
34807;BMP280;18310;55.586;12.286;2023-10-09T16:36:10;101825.44;;;19.09
34807;BMP280;18310;55.586;12.286;2023-10-09T16:39:14;101831.81;;;19.16
34807;BMP280;18310;55.586;12.286;2023-10-09T16:42:24;101814.41;;;19.09
34807;BMP280;18310;55.586;12.286;2023-10-09T16:45:28;101803.31;;;18.98
34807;BMP280;18310;55.586;12.286;2023-10-09T16:48:31;101785.50;;;18.85
34807;BMP280;18310;55.586;12.286;2023-10-09T16:51:34;101790.47;;;18.69
34807;BMP280;18310;55.586;12.286;2023-10-09T16:54:38;101799.44;;;18.59
34807;BMP280;18310;55.586;12.286;2023-10-09T16:57:41;101810.44;;;18.55
34807;BMP280;18310;55.586;12.286;2023-10-09T17:00:46;101810.06;;;18.53
34807;BMP280;18310;55.586;12.286;2023-10-09T17:03:49;101819.13;;;18.57
34807;BMP280;18310;55.586;12.286;2023-10-09T17:07:00;101826.66;;;18.60
34807;BMP280;18310;55.586;12.286;2023-10-09T17:10:07;101828.28;;;18.65
34807;BMP280;18310;55.586;12.286;2023-10-09T17:13:16;101822.75;;;18.65
34807;BMP280;18310;55.586;12.286;2023-10-09T17:16:23;101831.03;;;18.68
34807;BMP280;18310;55.586;12.286;2023-10-09T17:19:30;101838.94;;;18.70
34807;BMP280;18310;55.586;12.286;2023-10-09T17:22:34;101833.06;;;18.71
34807;BMP280;18310;55.586;12.286;2023-10-09T17:25:37;101831.09;;;18.72
34807;BMP280;18310;55.586;12.286;2023-10-09T17:28:46;101843.34;;;18.74
34807;BMP280;18310;55.586;12.286;2023-10-09T17:31:50;101840.22;;;18.76
34807;BMP280;18310;55.586;12.286;2023-10-09T17:34:53;101835.50;;;18.76
34807;BMP280;18310;55.586;12.286;2023-10-09T17:37:57;101827.94;;;18.77
34807;BMP280;18310;55.586;12.286;2023-10-09T17:41:01;101835.06;;;18.78